sensor_id;sensor_type;location;lat;lon;timestamp;pressure;altitude;pressure_sealevel;temperature;humidity
56668;BME280;42542;48.360;10.958;2023-07-31T00:01:38;96269.50;;;15.28;86.58
56668;BME280;42542;48.360;10.958;2023-07-31T00:04:40;96268.22;;;15.23;86.67
56668;BME280;42542;48.360;10.958;2023-07-31T00:07:42;96258.03;;;15.19;86.94
56668;BME280;42542;48.360;10.958;2023-07-31T00:10:45;96273.53;;;15.17;86.41
56668;BME280;42542;48.360;10.958;2023-07-31T00:13:49;96256.06;;;15.13;86.10
56668;BME280;42542;48.360;10.958;2023-07-31T00:16:54;96259.81;;;15.12;86.29
56668;BME280;42542;48.360;10.958;2023-07-31T00:19:59;96256.47;;;15.10;86.08
56668;BME280;42542;48.360;10.958;2023-07-31T00:23:02;96261.00;;;15.09;85.76
56668;BME280;42542;48.360;10.958;2023-07-31T00:26:05;96258.50;;;15.08;86.20
56668;BME280;42542;48.360;10.958;2023-07-31T00:29:10;96257.84;;;15.06;86.57
56668;BME280;42542;48.360;10.958;2023-07-31T00:32:13;96258.06;;;15.04;86.46
56668;BME280;42542;48.360;10.958;2023-07-31T00:35:16;96252.22;;;15.01;86.66
56668;BME280;42542;48.360;10.958;2023-07-31T00:38:18;96259.44;;;15.00;86.23
56668;BME280;42542;48.360;10.958;2023-07-31T00:41:20;96245.38;;;14.98;86.40
56668;BME280;42542;48.360;10.958;2023-07-31T00:44:24;96237.47;;;14.97;86.45
56668;BME280;42542;48.360;10.958;2023-07-31T00:47:29;96246.38;;;14.97;86.93
56668;BME280;42542;48.360;10.958;2023-07-31T00:50:33;96242.84;;;14.97;86.32
56668;BME280;42542;48.360;10.958;2023-07-31T00:53:37;96253.63;;;14.97;86.84
56668;BME280;42542;48.360;10.958;2023-07-31T00:56:41;96239.31;;;14.96;86.35
56668;BME280;42542;48.360;10.958;2023-07-31T00:59:48;96243.88;;;14.96;86.56
56668;BME280;42542;48.360;10.958;2023-07-31T01:02:50;96247.75;;;14.93;86.45
56668;BME280;42542;48.360;10.958;2023-07-31T01:09:26;96246.38;;;14.97;87.33
56668;BME280;42542;48.360;10.958;2023-07-31T01:12:31;96234.97;;;14.95;87.65
56668;BME280;42542;48.360;10.958;2023-07-31T01:15:34;96236.44;;;14.98;87.87
56668;BME280;42542;48.360;10.958;2023-07-31T01:18:40;96233.75;;;14.98;87.59
56668;BME280;42542;48.360;10.958;2023-07-31T01:28:55;96216.78;;;14.97;88.46
56668;BME280;42542;48.360;10.958;2023-07-31T01:32:02;96217.78;;;14.96;88.60
56668;BME280;42542;48.360;10.958;2023-07-31T01:35:05;96211.38;;;14.97;88.61
56668;BME280;42542;48.360;10.958;2023-07-31T01:38:09;96210.09;;;14.93;89.03
56668;BME280;42542;48.360;10.958;2023-07-31T01:41:11;96218.63;;;14.97;89.20
56668;BME280;42542;48.360;10.958;2023-07-31T01:44:13;96212.41;;;14.96;89.13
56668;BME280;42542;48.360;10.958;2023-07-31T01:47:16;96222.16;;;14.97;89.70
56668;BME280;42542;48.360;10.958;2023-07-31T01:50:19;96214.25;;;14.96;89.67
56668;BME280;42542;48.360;10.958;2023-07-31T01:53:23;96212.41;;;14.96;89.88
56668;BME280;42542;48.360;10.958;2023-07-31T01:56:29;96214.69;;;14.99;90.03
56668;BME280;42542;48.360;10.958;2023-07-31T01:59:33;96215.53;;;15.00;90.08
56668;BME280;42542;48.360;10.958;2023-07-31T02:02:35;96219.06;;;15.00;90.45
56668;BME280;42542;48.360;10.958;2023-07-31T02:05:48;96208.31;;;15.00;90.03
56668;BME280;42542;48.360;10.958;2023-07-31T02:08:51;96211.00;;;15.00;90.04
56668;BME280;42542;48.360;10.958;2023-07-31T02:11:53;96206.63;;;14.99;90.05
56668;BME280;42542;48.360;10.958;2023-07-31T02:14:59;96193.16;;;14.99;90.23
56668;BME280;42542;48.360;10.958;2023-07-31T02:18:01;96192.16;;;15.00;90.62
56668;BME280;42542;48.360;10.958;2023-07-31T02:21:05;96188.00;;;14.98;90.96
56668;BME280;42542;48.360;10.958;2023-07-31T02:24:07;96178.63;;;14.94;90.63
56668;BME280;42542;48.360;10.958;2023-07-31T02:27:10;96169.28;;;14.90;90.54
56668;BME280;42542;48.360;10.958;2023-07-31T02:30:13;96179.00;;;14.91;91.09
56668;BME280;42542;48.360;10.958;2023-07-31T02:33:16;96164.44;;;14.85;90.94
56668;BME280;42542;48.360;10.958;2023-07-31T02:36:18;96173.53;;;14.84;90.80
56668;BME280;42542;48.360;10.958;2023-07-31T02:39:21;96175.59;;;14.82;91.49
56668;BME280;42542;48.360;10.958;2023-07-31T02:42:25;96174.09;;;14.79;91.92
56668;BME280;42542;48.360;10.958;2023-07-31T02:45:30;96175.53;;;14.75;91.95
56668;BME280;42542;48.360;10.958;2023-07-31T02:48:33;96174.41;;;14.70;91.84
56668;BME280;42542;48.360;10.958;2023-07-31T02:51:34;96164.69;;;14.69;92.22
56668;BME280;42542;48.360;10.958;2023-07-31T02:54:38;96161.34;;;14.67;92.50
56668;BME280;42542;48.360;10.958;2023-07-31T02:57:41;96162.53;;;14.64;92.67
56668;BME280;42542;48.360;10.958;2023-07-31T03:00:44;96163.56;;;14.63;92.86
56668;BME280;42542;48.360;10.958;2023-07-31T03:03:46;96154.03;;;14.61;92.82
56668;BME280;42542;48.360;10.958;2023-07-31T03:06:49;96157.06;;;14.58;92.91
56668;BME280;42542;48.360;10.958;2023-07-31T03:09:51;96152.91;;;14.55;92.91
56668;BME280;42542;48.360;10.958;2023-07-31T03:12:55;96169.25;;;14.54;93.34
56668;BME280;42542;48.360;10.958;2023-07-31T03:15:56;96152.63;;;14.50;93.69
56668;BME280;42542;48.360;10.958;2023-07-31T03:18:59;96154.50;;;14.50;93.43
56668;BME280;42542;48.360;10.958;2023-07-31T03:22:01;96148.66;;;14.46;93.84
56668;BME280;42542;48.360;10.958;2023-07-31T03:25:04;96155.31;;;14.50;93.93
56668;BME280;42542;48.360;10.958;2023-07-31T03:28:06;96166.75;;;14.52;94.06
56668;BME280;42542;48.360;10.958;2023-07-31T03:31:11;96148.94;;;14.51;93.71
56668;BME280;42542;48.360;10.958;2023-07-31T03:34:13;96154.50;;;14.50;93.69
56668;BME280;42542;48.360;10.958;2023-07-31T03:37:19;96163.88;;;14.54;93.56
56668;BME280;42542;48.360;10.958;2023-07-31T03:40:25;96157.66;;;14.53;93.35
56668;BME280;42542;48.360;10.958;2023-07-31T03:43:29;96162.47;;;14.58;93.22
56668;BME280;42542;48.360;10.958;2023-07-31T03:46:33;96156.91;;;14.59;93.68
56668;BME280;42542;48.360;10.958;2023-07-31T03:49:37;96155.88;;;14.60;93.75
56668;BME280;42542;48.360;10.958;2023-07-31T03:52:42;96161.69;;;14.64;93.79
56668;BME280;42542;48.360;10.958;2023-07-31T03:55:48;96163.19;;;14.66;93.45
56668;BME280;42542;48.360;10.958;2023-07-31T03:58:50;96158.47;;;14.68;93.56
56668;BME280;42542;48.360;10.958;2023-07-31T04:01:58;96160.31;;;14.68;93.69
56668;BME280;42542;48.360;10.958;2023-07-31T04:05:00;96152.06;;;14.69;93.93
56668;BME280;42542;48.360;10.958;2023-07-31T04:08:03;96153.72;;;14.70;93.56
56668;BME280;42542;48.360;10.958;2023-07-31T04:11:05;96152.50;;;14.73;93.55
56668;BME280;42542;48.360;10.958;2023-07-31T04:14:07;96150.84;;;14.72;93.74
56668;BME280;42542;48.360;10.958;2023-07-31T04:17:11;96152.31;;;14.74;93.38
56668;BME280;42542;48.360;10.958;2023-07-31T04:20:13;96150.72;;;14.80;93.75
56668;BME280;42542;48.360;10.958;2023-07-31T04:23:18;96145.34;;;14.80;93.88
56668;BME280;42542;48.360;10.958;2023-07-31T04:26:20;96143.75;;;14.85;93.49
56668;BME280;42542;48.360;10.958;2023-07-31T04:29:22;96140.03;;;14.87;93.37
56668;BME280;42542;48.360;10.958;2023-07-31T04:32:25;96139.47;;;14.91;93.43
56668;BME280;42542;48.360;10.958;2023-07-31T04:35:30;96142.78;;;14.93;93.55
56668;BME280;42542;48.360;10.958;2023-07-31T04:38:32;96137.03;;;14.96;93.62
56668;BME280;42542;48.360;10.958;2023-07-31T04:41:44;96122.56;;;14.97;93.37
56668;BME280;42542;48.360;10.958;2023-07-31T04:44:52;96125.31;;;15.04;93.46
56668;BME280;42542;48.360;10.958;2023-07-31T04:47:56;96122.22;;;15.07;93.42
56668;BME280;42542;48.360;10.958;2023-07-31T04:50:58;96135.13;;;15.11;93.37
56668;BME280;42542;48.360;10.958;2023-07-31T04:54:02;96128.72;;;15.12;92.82
56668;BME280;42542;48.360;10.958;2023-07-31T04:57:04;96137.47;;;15.21;92.58
56668;BME280;42542;48.360;10.958;2023-07-31T05:00:09;96139.81;;;15.24;92.77
56668;BME280;42542;48.360;10.958;2023-07-31T05:03:12;96134.47;;;15.31;92.14
56668;BME280;42542;48.360;10.958;2023-07-31T05:06:17;96128.06;;;15.32;92.11
56668;BME280;42542;48.360;10.958;2023-07-31T05:09:19;96135.19;;;15.39;91.99
56668;BME280;42542;48.360;10.958;2023-07-31T05:12:22;96134.59;;;15.44;91.83
56668;BME280;42542;48.360;10.958;2023-07-31T05:15:23;96131.53;;;15.47;91.41
56668;BME280;42542;48.360;10.958;2023-07-31T05:18:25;96128.06;;;15.53;91.60
56668;BME280;42542;48.360;10.958;2023-07-31T05:21:27;96133.09;;;15.56;90.72
56668;BME280;42542;48.360;10.958;2023-07-31T05:24:33;96133.09;;;15.56;90.39
56668;BME280;42542;48.360;10.958;2023-07-31T05:27:35;96147.44;;;15.63;90.30
56668;BME280;42542;48.360;10.958;2023-07-31T05:30:38;96150.75;;;15.65;90.00
56668;BME280;42542;48.360;10.958;2023-07-31T05:33:39;96150.38;;;15.68;89.69
56668;BME280;42542;48.360;10.958;2023-07-31T05:36:44;96152.88;;;15.70;89.58
56668;BME280;42542;48.360;10.958;2023-07-31T05:39:46;96151.66;;;15.72;89.52
56668;BME280;42542;48.360;10.958;2023-07-31T05:42:48;96155.00;;;15.74;88.81
56668;BME280;42542;48.360;10.958;2023-07-31T05:45:51;96147.31;;;15.78;88.80
56668;BME280;42542;48.360;10.958;2023-07-31T05:48:53;96147.78;;;15.81;88.49
56668;BME280;42542;48.360;10.958;2023-07-31T05:51:55;96141.19;;;15.84;88.29
56668;BME280;42542;48.360;10.958;2023-07-31T05:54:58;96133.94;;;15.84;88.58
56668;BME280;42542;48.360;10.958;2023-07-31T05:58:00;96139.38;;;15.91;88.13
56668;BME280;42542;48.360;10.958;2023-07-31T06:01:02;96136.66;;;15.91;88.04
56668;BME280;42542;48.360;10.958;2023-07-31T06:04:04;96136.91;;;15.96;87.93
56668;BME280;42542;48.360;10.958;2023-07-31T06:07:07;96139.63;;;16.02;87.99
56668;BME280;42542;48.360;10.958;2023-07-31T06:10:09;96133.22;;;16.04;87.12
56668;BME280;42542;48.360;10.958;2023-07-31T06:13:11;96145.72;;;16.11;86.66
56668;BME280;42542;48.360;10.958;2023-07-31T06:16:14;96140.56;;;16.16;86.86
56668;BME280;42542;48.360;10.958;2023-07-31T06:19:16;96139.75;;;16.22;87.43
56668;BME280;42542;48.360;10.958;2023-07-31T06:22:18;96138.34;;;16.26;87.29
56668;BME280;42542;48.360;10.958;2023-07-31T06:25:21;96139.22;;;16.33;87.79
56668;BME280;42542;48.360;10.958;2023-07-31T06:28:30;96130.31;;;16.39;87.77
56668;BME280;42542;48.360;10.958;2023-07-31T06:31:33;96120.56;;;16.45;88.09
56668;BME280;42542;48.360;10.958;2023-07-31T06:34:35;96123.31;;;16.52;88.31
56668;BME280;42542;48.360;10.958;2023-07-31T06:37:37;96126.84;;;16.59;88.10
56668;BME280;42542;48.360;10.958;2023-07-31T06:40:42;96119.03;;;16.64;88.31
56668;BME280;42542;48.360;10.958;2023-07-31T06:43:46;96125.06;;;16.72;87.44
56668;BME280;42542;48.360;10.958;2023-07-31T06:46:48;96124.06;;;16.80;86.07
56668;BME280;42542;48.360;10.958;2023-07-31T06:49:50;96130.94;;;16.89;86.15
56668;BME280;42542;48.360;10.958;2023-07-31T06:52:51;96126.41;;;16.96;85.44
56668;BME280;42542;48.360;10.958;2023-07-31T06:55:54;96119.59;;;17.07;85.33
56668;BME280;42542;48.360;10.958;2023-07-31T06:58:58;96134.34;;;17.11;84.83
56668;BME280;42542;48.360;10.958;2023-07-31T07:02:00;96136.22;;;17.17;85.22
56668;BME280;42542;48.360;10.958;2023-07-31T07:05:08;96130.63;;;17.18;83.88
56668;BME280;42542;48.360;10.958;2023-07-31T07:08:12;96135.19;;;17.31;83.51
56668;BME280;42542;48.360;10.958;2023-07-31T07:11:14;96137.72;;;17.39;83.83
56668;BME280;42542;48.360;10.958;2023-07-31T07:14:17;96121.94;;;17.49;84.51
56668;BME280;42542;48.360;10.958;2023-07-31T07:17:19;96122.75;;;17.56;82.96
56668;BME280;42542;48.360;10.958;2023-07-31T07:20:21;96109.28;;;17.63;82.31
56668;BME280;42542;48.360;10.958;2023-07-31T07:23:24;96106.13;;;17.73;82.49
56668;BME280;42542;48.360;10.958;2023-07-31T07:26:26;96107.78;;;17.80;81.48
56668;BME280;42542;48.360;10.958;2023-07-31T07:29:28;96107.56;;;17.88;80.85
56668;BME280;42542;48.360;10.958;2023-07-31T07:32:33;96100.28;;;17.95;80.70
56668;BME280;42542;48.360;10.958;2023-07-31T07:35:35;96104.00;;;18.14;81.15
56668;BME280;42542;48.360;10.958;2023-07-31T07:38:37;96098.78;;;18.26;80.09
56668;BME280;42542;48.360;10.958;2023-07-31T07:41:42;96092.47;;;18.39;78.93
56668;BME280;42542;48.360;10.958;2023-07-31T07:44:44;96090.78;;;18.44;77.95
56668;BME280;42542;48.360;10.958;2023-07-31T07:47:46;96099.28;;;18.54;76.36
56668;BME280;42542;48.360;10.958;2023-07-31T07:50:48;96100.53;;;18.52;73.35
56668;BME280;42542;48.360;10.958;2023-07-31T07:53:50;96105.38;;;18.56;73.21
56668;BME280;42542;48.360;10.958;2023-07-31T07:56:53;96103.50;;;18.57;71.43
56668;BME280;42542;48.360;10.958;2023-07-31T07:59:57;96104.09;;;18.59;71.61
56668;BME280;42542;48.360;10.958;2023-07-31T08:03:00;96100.59;;;18.58;70.84
56668;BME280;42542;48.360;10.958;2023-07-31T08:06:05;96099.94;;;18.63;70.97
56668;BME280;42542;48.360;10.958;2023-07-31T08:09:07;96105.72;;;18.66;69.92
56668;BME280;42542;48.360;10.958;2023-07-31T08:12:11;96107.19;;;18.69;70.83
56668;BME280;42542;48.360;10.958;2023-07-31T08:15:13;96113.00;;;18.73;70.63
56668;BME280;42542;48.360;10.958;2023-07-31T08:18:15;96116.75;;;18.71;70.40
56668;BME280;42542;48.360;10.958;2023-07-31T08:21:19;96123.22;;;18.70;70.98
56668;BME280;42542;48.360;10.958;2023-07-31T08:24:21;96117.97;;;18.76;71.33
56668;BME280;42542;48.360;10.958;2023-07-31T08:27:23;96110.31;;;18.73;70.05
56668;BME280;42542;48.360;10.958;2023-07-31T08:30:25;96117.59;;;18.72;70.11
56668;BME280;42542;48.360;10.958;2023-07-31T08:33:28;96115.47;;;18.74;70.26
56668;BME280;42542;48.360;10.958;2023-07-31T08:36:31;96112.78;;;18.74;70.18
56668;BME280;42542;48.360;10.958;2023-07-31T08:39:34;96115.69;;;18.79;69.80
56668;BME280;42542;48.360;10.958;2023-07-31T08:42:49;96112.13;;;18.85;70.95
56668;BME280;42542;48.360;10.958;2023-07-31T08:45:53;96108.13;;;18.94;70.70
56668;BME280;42542;48.360;10.958;2023-07-31T08:48:56;96107.00;;;19.02;70.11
56668;BME280;42542;48.360;10.958;2023-07-31T08:52:10;96104.28;;;19.08;69.32
56668;BME280;42542;48.360;10.958;2023-07-31T08:55:12;96094.03;;;19.10;68.89
56668;BME280;42542;48.360;10.958;2023-07-31T08:58:17;96093.78;;;19.19;69.43
56668;BME280;42542;48.360;10.958;2023-07-31T09:01:19;96090.19;;;19.25;68.76
56668;BME280;42542;48.360;10.958;2023-07-31T09:04:23;96089.34;;;19.24;67.28
56668;BME280;42542;48.360;10.958;2023-07-31T09:07:45;96095.41;;;19.26;67.71
56668;BME280;42542;48.360;10.958;2023-07-31T09:10:49;96101.88;;;19.25;67.52
56668;BME280;42542;48.360;10.958;2023-07-31T09:13:57;96086.84;;;19.29;67.54
56668;BME280;42542;48.360;10.958;2023-07-31T09:17:05;96087.22;;;19.33;67.28
56668;BME280;42542;48.360;10.958;2023-07-31T09:20:21;96084.88;;;19.43;67.31
56668;BME280;42542;48.360;10.958;2023-07-31T09:23:24;96080.47;;;19.48;67.20
56668;BME280;42542;48.360;10.958;2023-07-31T09:26:35;96090.41;;;19.55;65.80
56668;BME280;42542;48.360;10.958;2023-07-31T09:29:38;96075.81;;;19.56;65.08
56668;BME280;42542;48.360;10.958;2023-07-31T09:32:40;96078.09;;;19.59;65.66
56668;BME280;42542;48.360;10.958;2023-07-31T09:35:44;96077.44;;;19.63;65.26
56668;BME280;42542;48.360;10.958;2023-07-31T09:38:47;96069.91;;;19.65;65.07
56668;BME280;42542;48.360;10.958;2023-07-31T09:41:55;96061.09;;;19.70;65.11
56668;BME280;42542;48.360;10.958;2023-07-31T09:45:07;96057.94;;;19.73;64.50
56668;BME280;42542;48.360;10.958;2023-07-31T09:48:18;96044.13;;;19.74;63.00
56668;BME280;42542;48.360;10.958;2023-07-31T09:51:26;96043.91;;;19.76;63.18
56668;BME280;42542;48.360;10.958;2023-07-31T09:54:32;96016.81;;;19.76;62.21
56668;BME280;42542;48.360;10.958;2023-07-31T09:57:39;96010.25;;;19.83;64.37
56668;BME280;42542;48.360;10.958;2023-07-31T10:00:42;96018.09;;;19.92;63.17
56668;BME280;42542;48.360;10.958;2023-07-31T10:03:45;96024.44;;;20.04;63.89
56668;BME280;42542;48.360;10.958;2023-07-31T10:06:49;96011.63;;;20.11;64.52
56668;BME280;42542;48.360;10.958;2023-07-31T10:09:54;96009.22;;;20.21;64.10
56668;BME280;42542;48.360;10.958;2023-07-31T10:12:59;96008.09;;;20.28;62.77
56668;BME280;42542;48.360;10.958;2023-07-31T10:16:01;96004.47;;;20.35;61.60
56668;BME280;42542;48.360;10.958;2023-07-31T10:19:05;96006.50;;;20.39;62.55
56668;BME280;42542;48.360;10.958;2023-07-31T10:22:11;96009.38;;;20.44;62.45
56668;BME280;42542;48.360;10.958;2023-07-31T10:25:15;95999.94;;;20.47;61.41
56668;BME280;42542;48.360;10.958;2023-07-31T10:28:18;96000.31;;;20.50;61.51
56668;BME280;42542;48.360;10.958;2023-07-31T10:31:22;96011.31;;;20.55;60.80
56668;BME280;42542;48.360;10.958;2023-07-31T10:34:25;95998.34;;;20.57;59.71
56668;BME280;42542;48.360;10.958;2023-07-31T10:37:29;95992.31;;;20.55;60.31
56668;BME280;42542;48.360;10.958;2023-07-31T10:40:32;95984.91;;;20.62;61.21
56668;BME280;42542;48.360;10.958;2023-07-31T10:43:38;95978.78;;;20.67;61.01
56668;BME280;42542;48.360;10.958;2023-07-31T10:46:40;95978.69;;;20.74;59.79
56668;BME280;42542;48.360;10.958;2023-07-31T10:49:46;95968.31;;;20.82;59.42
56668;BME280;42542;48.360;10.958;2023-07-31T10:52:55;95965.50;;;20.89;59.34
56668;BME280;42542;48.360;10.958;2023-07-31T10:55:58;95960.81;;;20.96;59.09
56668;BME280;42542;48.360;10.958;2023-07-31T10:59:01;95968.03;;;21.02;58.70
56668;BME280;42542;48.360;10.958;2023-07-31T11:02:24;95972.72;;;20.95;55.73
56668;BME280;42542;48.360;10.958;2023-07-31T11:08:50;95943.06;;;20.93;56.29
56668;BME280;42542;48.360;10.958;2023-07-31T11:11:57;95943.91;;;20.94;56.65
56668;BME280;42542;48.360;10.958;2023-07-31T11:14:59;95941.53;;;20.97;57.81
56668;BME280;42542;48.360;10.958;2023-07-31T11:18:02;95928.66;;;21.04;57.31
56668;BME280;42542;48.360;10.958;2023-07-31T11:21:14;95913.78;;;21.07;57.64
56668;BME280;42542;48.360;10.958;2023-07-31T11:24:17;95909.47;;;21.18;58.17
56668;BME280;42542;48.360;10.958;2023-07-31T11:27:19;95914.66;;;21.31;57.80
56668;BME280;42542;48.360;10.958;2023-07-31T11:30:21;95911.59;;;21.39;56.81
56668;BME280;42542;48.360;10.958;2023-07-31T11:33:24;95910.88;;;21.43;55.58
56668;BME280;42542;48.360;10.958;2023-07-31T11:36:25;95907.56;;;21.53;55.91
56668;BME280;42542;48.360;10.958;2023-07-31T11:39:28;95889.09;;;21.55;54.79
56668;BME280;42542;48.360;10.958;2023-07-31T11:42:34;95888.97;;;21.62;57.19
56668;BME280;42542;48.360;10.958;2023-07-31T11:45:40;95891.47;;;21.75;57.86
56668;BME280;42542;48.360;10.958;2023-07-31T11:48:43;95896.50;;;21.83;58.07
56668;BME280;42542;48.360;10.958;2023-07-31T11:51:47;95889.44;;;21.82;55.95
56668;BME280;42542;48.360;10.958;2023-07-31T11:54:49;95887.88;;;21.86;56.12
56668;BME280;42542;48.360;10.958;2023-07-31T11:57:55;95885.50;;;22.01;56.88
56668;BME280;42542;48.360;10.958;2023-07-31T12:00:59;95874.38;;;22.03;54.87
56668;BME280;42542;48.360;10.958;2023-07-31T12:04:01;95880.50;;;22.10;53.90
56668;BME280;42542;48.360;10.958;2023-07-31T12:07:05;95870.75;;;22.26;54.07
56668;BME280;42542;48.360;10.958;2023-07-31T12:10:10;95875.88;;;22.39;53.84
56668;BME280;42542;48.360;10.958;2023-07-31T12:13:20;95876.56;;;22.46;51.33
56668;BME280;42542;48.360;10.958;2023-07-31T12:16:26;95884.22;;;22.49;51.95
56668;BME280;42542;48.360;10.958;2023-07-31T12:19:29;95879.38;;;22.51;52.38
56668;BME280;42542;48.360;10.958;2023-07-31T12:22:33;95868.56;;;22.56;52.71
56668;BME280;42542;48.360;10.958;2023-07-31T12:25:35;95864.22;;;22.72;53.54
56668;BME280;42542;48.360;10.958;2023-07-31T12:28:49;95867.72;;;22.84;52.18
56668;BME280;42542;48.360;10.958;2023-07-31T12:31:52;95871.69;;;22.93;52.39
56668;BME280;42542;48.360;10.958;2023-07-31T12:34:59;95869.78;;;22.93;50.43
56668;BME280;42542;48.360;10.958;2023-07-31T12:38:03;95864.50;;;23.04;51.07
56668;BME280;42542;48.360;10.958;2023-07-31T12:41:06;95861.38;;;23.12;51.22
56668;BME280;42542;48.360;10.958;2023-07-31T12:44:08;95860.25;;;23.29;52.36
56668;BME280;42542;48.360;10.958;2023-07-31T12:47:12;95855.22;;;23.38;50.84
56668;BME280;42542;48.360;10.958;2023-07-31T12:50:13;95845.78;;;23.46;51.87
56668;BME280;42542;48.360;10.958;2023-07-31T12:53:17;95852.31;;;23.45;48.83
56668;BME280;42542;48.360;10.958;2023-07-31T12:56:18;95850.25;;;23.35;49.49
56668;BME280;42542;48.360;10.958;2023-07-31T12:59:21;95846.38;;;23.31;49.83
56668;BME280;42542;48.360;10.958;2023-07-31T13:02:26;95832.50;;;23.32;49.18
56668;BME280;42542;48.360;10.958;2023-07-31T13:05:29;95834.53;;;23.42;49.95
56668;BME280;42542;48.360;10.958;2023-07-31T13:08:31;95816.06;;;23.66;51.13
56668;BME280;42542;48.360;10.958;2023-07-31T13:11:34;95824.19;;;23.83;48.23
56668;BME280;42542;48.360;10.958;2023-07-31T13:14:39;95820.25;;;23.95;47.85
56668;BME280;42542;48.360;10.958;2023-07-31T13:17:41;95800.03;;;24.18;47.28
56668;BME280;42542;48.360;10.958;2023-07-31T13:20:43;95796.41;;;24.34;45.99
56668;BME280;42542;48.360;10.958;2023-07-31T13:23:48;95793.16;;;24.42;46.34
56668;BME280;42542;48.360;10.958;2023-07-31T13:26:50;95786.47;;;24.55;45.64
56668;BME280;42542;48.360;10.958;2023-07-31T13:29:53;95794.09;;;24.53;45.75
56668;BME280;42542;48.360;10.958;2023-07-31T13:32:55;95796.19;;;24.41;44.00
56668;BME280;42542;48.360;10.958;2023-07-31T13:35:57;95785.72;;;24.33;46.07
56668;BME280;42542;48.360;10.958;2023-07-31T13:39:03;95772.34;;;24.36;46.45
56668;BME280;42542;48.360;10.958;2023-07-31T13:42:06;95777.34;;;24.44;46.17
56668;BME280;42542;48.360;10.958;2023-07-31T13:45:10;95764.28;;;24.51;46.13
56668;BME280;42542;48.360;10.958;2023-07-31T13:48:13;95779.56;;;24.47;43.95
56668;BME280;42542;48.360;10.958;2023-07-31T13:51:16;95775.03;;;24.31;44.01
56668;BME280;42542;48.360;10.958;2023-07-31T13:54:19;95775.69;;;24.17;44.70
56668;BME280;42542;48.360;10.958;2023-07-31T13:57:20;95770.69;;;24.08;45.97
56668;BME280;42542;48.360;10.958;2023-07-31T14:00:23;95768.19;;;24.07;46.63
56668;BME280;42542;48.360;10.958;2023-07-31T14:03:24;95775.03;;;24.04;48.08
56668;BME280;42542;48.360;10.958;2023-07-31T14:06:27;95774.16;;;23.99;46.81
56668;BME280;42542;48.360;10.958;2023-07-31T14:09:28;95767.16;;;23.86;47.93
56668;BME280;42542;48.360;10.958;2023-07-31T14:12:33;95763.56;;;23.81;48.19
56668;BME280;42542;48.360;10.958;2023-07-31T14:15:44;95757.03;;;23.82;48.79
56668;BME280;42542;48.360;10.958;2023-07-31T14:18:47;95753.22;;;23.83;49.12
56668;BME280;42542;48.360;10.958;2023-07-31T14:21:49;95751.81;;;23.80;48.50
56668;BME280;42542;48.360;10.958;2023-07-31T14:25:11;95760.97;;;23.69;48.57
56668;BME280;42542;48.360;10.958;2023-07-31T14:28:15;95758.69;;;23.61;48.19
56668;BME280;42542;48.360;10.958;2023-07-31T14:31:17;95748.53;;;23.56;49.29
56668;BME280;42542;48.360;10.958;2023-07-31T14:34:19;95738.72;;;23.55;51.82
56668;BME280;42542;48.360;10.958;2023-07-31T14:37:20;95746.81;;;23.50;53.29
56668;BME280;42542;48.360;10.958;2023-07-31T14:40:25;95757.59;;;23.40;51.62
56668;BME280;42542;48.360;10.958;2023-07-31T14:43:29;95758.59;;;23.34;51.37
56668;BME280;42542;48.360;10.958;2023-07-31T14:46:30;95758.75;;;23.27;49.78
56668;BME280;42542;48.360;10.958;2023-07-31T14:49:35;95767.72;;;23.23;50.17
56668;BME280;42542;48.360;10.958;2023-07-31T14:52:37;95761.97;;;23.19;50.51
56668;BME280;42542;48.360;10.958;2023-07-31T14:55:41;95767.97;;;23.21;50.92
56668;BME280;42542;48.360;10.958;2023-07-31T14:58:43;95761.19;;;23.24;51.38
56668;BME280;42542;48.360;10.958;2023-07-31T15:01:49;95769.03;;;23.20;50.75
56668;BME280;42542;48.360;10.958;2023-07-31T15:04:55;95769.75;;;23.11;50.57
56668;BME280;42542;48.360;10.958;2023-07-31T15:07:58;95775.84;;;23.01;50.42
56668;BME280;42542;48.360;10.958;2023-07-31T15:11:03;95769.16;;;22.92;50.70
56668;BME280;42542;48.360;10.958;2023-07-31T15:14:07;95767.69;;;22.84;50.95
56668;BME280;42542;48.360;10.958;2023-07-31T15:17:10;95768.69;;;22.78;50.94
56668;BME280;42542;48.360;10.958;2023-07-31T15:20:13;95754.38;;;22.71;51.63
56668;BME280;42542;48.360;10.958;2023-07-31T15:23:16;95760.91;;;22.70;51.60
56668;BME280;42542;48.360;10.958;2023-07-31T15:26:18;95763.50;;;22.60;50.75
56668;BME280;42542;48.360;10.958;2023-07-31T15:29:20;95756.31;;;22.54;51.64
56668;BME280;42542;48.360;10.958;2023-07-31T15:32:22;95756.47;;;22.47;51.66
56668;BME280;42542;48.360;10.958;2023-07-31T15:35:25;95741.38;;;22.40;51.93
56668;BME280;42542;48.360;10.958;2023-07-31T15:38:27;95737.22;;;22.37;52.59
56668;BME280;42542;48.360;10.958;2023-07-31T15:41:28;95740.44;;;22.34;53.16
56668;BME280;42542;48.360;10.958;2023-07-31T15:44:31;95736.06;;;22.33;53.92
56668;BME280;42542;48.360;10.958;2023-07-31T15:47:34;95737.16;;;22.32;55.15
56668;BME280;42542;48.360;10.958;2023-07-31T15:50:37;95737.22;;;22.37;57.04
56668;BME280;42542;48.360;10.958;2023-07-31T15:53:41;95724.38;;;22.33;58.25
56668;BME280;42542;48.360;10.958;2023-07-31T15:56:44;95711.47;;;22.28;58.74
56668;BME280;42542;48.360;10.958;2023-07-31T15:59:46;95720.72;;;22.27;60.73
56668;BME280;42542;48.360;10.958;2023-07-31T16:02:49;95714.72;;;22.25;60.80
56668;BME280;42542;48.360;10.958;2023-07-31T16:05:51;95708.75;;;22.28;61.68
56668;BME280;42542;48.360;10.958;2023-07-31T16:08:55;95712.81;;;22.26;60.87
56668;BME280;42542;48.360;10.958;2023-07-31T16:11:57;95701.34;;;22.24;60.49
56668;BME280;42542;48.360;10.958;2023-07-31T16:15:01;95707.03;;;22.22;60.23